Urb Batista, Puerto Rico
Current Conditions -  °F | °C
As of 10:56 PM on Saturday 25 Oct 2014 (Local Time) from TJSJ Reporting Station
Few Clouds Few Clouds  
Wind Chill: 83°   Ceiling: Unl
Heat Index: 91°   Visibility: 10mi
Dew Point: 76°   Wind: 5mph
Humidity: 79%   Direction: 180°S
Pressure: 29.9"   Gusts: NA
Location:  18.2361°N, 66.0369°W
Report Text: TJSJ 260256Z 18004KT 10SM FEW024 28/24 A2990 RMK AO2 SLP123 T02830244 50009
Loading
Personal Weather Stations






























Interactive Weather Map
Tropical Storm Tracking
New forecast layout! Learn more

10-Day Weather Forecast

Advertisements
Track Severe Weather on mobile